Hall Beach Airport
CYUX : now visible

Airfield :











YOU CAN JOIN US ON...

 
LOGIN :

Register | Disclaimer

   EN    FR    IT 

 









Legend :    VFR   Marginal VFR   IFR   Intensive IFR   Very Intensive IFR
Visi :
Ceiling :
>= 8 km
>= 3000ft
5 to 8 km
1000 to 3000 ft
1500m to 5 km
500 to 1000 ft
800 to 1500m
200 to 500 ft
< 800m
< 200 ft
Symbols :   Thunderstorms  Fog  Heavy snow  Heavy precipitations  Wind > 20 kt






- Airport Elevation : 27 ft
- IATA code : YUX


CYUX - Hall Beach

CURRENT METAR :
  • 012025Z 34012KT 8SM IC DRSN SCT011 M25/M29 A3140 RMK ST4 BR OVR BASIN SLP636

EXPIRED METARs :
  • 012000Z 34011KT 7SM IC DRSN BKN011 M25/M29 A3139 RMK ST6 BR OVR BASIN SLP634
  • 011900Z 33012KT 6SM IC DRSN SCT011 M26/M29 A3139 RMK ST6 BR OVR BASIN SLP632
  • 011841Z 33011KT 6SM IC DRSN BKN011 M26/M29 A3138 RMK ST6 BR OVR BASIN SLP629
  • 011800Z 33012KT 15SM FEW011 M27/M31 A3138 RMK SF1 BR OVR BASIN SLP629

TAF AMD TAF CYUX
Valid from the 01 at 19:00 until the 02 at 07:00 UTC


011850Z 0119/0207 33012KT P6SM SCT012
TEMPO 0119/0122 3SM BR BKN012 RMK NXT FCST BY 020100Z



MET'MAP, your aeronautical weather chart ! - Copyright ORBIFLY December 2007 - Disclaimer

ORBIFLY MET'MAP TEAM :

Programming & Development : Alexandra Zaïnal
Concept & original design : Baudouin d'Aumeries
Assistance for programming : Marc-Olivier Méhu
Technical & hardware support : Manuel Goepfert

Contact : metmap@orbifly.com




SOURCES & CREDITS :

   NOAA       Earth
Advisory